Time;durP1;ratioP1;P1;durP2;ratioP2;P2;SDS_P1;SDS_P2;PMS_P1;PMS_P2;Temp;Humidity;BMP_temperature;BMP_pressure;BME280_temperature;BME280_humidity;BME280_pressure;Samples;Min_cycle;Max_cycle;Signal;HPM_P1;HPM_P2
2022/03/25 00:00:33;;;;;;;42.50;16.20;;;;;;;;;;5015171;28;20452;-75
2022/03/25 00:02:58;;;;;;;34.30;15.65;;;;;;;;;;5015391;28;20057;-76
2022/03/25 00:05:23;;;;;;;44.83;15.10;;;;;;;;;;4998449;28;20029;-77
2022/03/25 00:07:49;;;;;;;47.92;16.98;;;;;;;;;;5019316;28;20113;-76
2022/03/25 00:10:15;;;;;;;44.92;16.65;;;;;;;;;;5016872;28;20029;-76
2022/03/25 00:12:40;;;;;;;45.70;16.88;;;;;;;;;;5015724;28;20033;-76
2022/03/25 00:15:06;;;;;;;47.50;16.67;;;;;;;;;;5015246;28;20026;-76
2022/03/25 00:17:32;;;;;;;42.95;16.42;;;;;;;;;;5015475;28;20029;-76
2022/03/25 00:19:57;;;;;;;41.47;16.67;;;;;;;;;;5014161;28;20040;-76
2022/03/25 00:22:23;;;;;;;40.05;17.08;;;;;;;;;;5013893;28;20083;-76
2022/03/25 00:24:48;;;;;;;46.72;16.88;;;;;;;;;;5014637;28;20069;-76
2022/03/25 00:27:14;;;;;;;39.75;16.75;;;;;;;;;;5017494;28;20136;-77
2022/03/25 00:29:40;;;;;;;48.08;18.20;;;;;;;;;;5025263;28;20021;-76
2022/03/25 00:32:06;;;;;;;44.60;17.45;;;;;;;;;;5017373;28;20124;-75
2022/03/25 00:34:31;;;;;;;54.03;17.45;;;;;;;;;;5034656;28;20043;-77
2022/03/25 00:36:56;;;;;;;45.17;17.55;;;;;;;;;;5034552;28;20033;-76
2022/03/25 00:39:22;;;;;;;42.65;17.52;;;;;;;;;;5034916;28;20112;-76
2022/03/25 00:41:47;;;;;;;48.17;17.25;;;;;;;;;;5034675;28;20351;-76
2022/03/25 00:44:13;;;;;;;50.83;17.77;;;;;;;;;;5016925;28;20119;-76
2022/03/25 00:46:39;;;;;;;54.40;17.90;;;;;;;;;;5036255;28;20086;-76
2022/03/25 00:49:05;;;;;;;46.20;17.60;;;;;;;;;;5001349;28;20441;-78
2022/03/25 00:51:30;;;;;;;47.10;18.30;;;;;;;;;;5021029;28;20115;-76
2022/03/25 00:53:56;;;;;;;47.97;17.83;;;;;;;;;;5034571;28;20099;-77
2022/03/25 00:56:22;;;;;;;50.05;18.42;;;;;;;;;;5034403;28;20454;-77
2022/03/25 00:58:47;;;;;;;44.08;18.95;;;;;;;;;;5034190;28;20087;-77
2022/03/25 01:01:12;;;;;;;47.50;19.02;;;;;;;;;;5016713;28;20025;-76
2022/03/25 01:03:38;;;;;;;53.58;18.27;;;;;;;;;;5016770;28;20467;-78
2022/03/25 01:06:03;;;;;;;52.25;19.70;;;;;;;;;;5016931;28;20677;-77
2022/03/25 01:08:29;;;;;;;46.65;19.02;;;;;;;;;;5034159;28;20425;-78
2022/03/25 01:10:55;;;;;;;50.78;18.42;;;;;;;;;;5040670;28;20063;-77
2022/03/25 01:13:20;;;;;;;50.47;19.70;;;;;;;;;;5036223;28;20080;-78
2022/03/25 01:15:46;;;;;;;47.95;19.30;;;;;;;;;;5034134;28;20033;-77
2022/03/25 01:18:11;;;;;;;53.83;18.98;;;;;;;;;;5016518;28;20112;-78
2022/03/25 01:20:37;;;;;;;52.35;19.73;;;;;;;;;;5034050;28;20087;-77
2022/03/25 01:23:02;;;;;;;58.45;19.63;;;;;;;;;;5016690;28;20067;-77
2022/03/25 01:25:28;;;;;;;49.30;18.90;;;;;;;;;;5033986;28;20064;-76
2022/03/25 01:27:54;;;;;;;56.38;19.02;;;;;;;;;;5016206;28;20052;-78
2022/03/25 01:30:19;;;;;;;55.35;20.25;;;;;;;;;;5034938;28;20060;-78
2022/03/25 01:32:45;;;;;;;50.13;18.85;;;;;;;;;;5040596;28;20447;-77
2022/03/25 01:35:11;;;;;;;51.65;19.67;;;;;;;;;;5034222;28;20450;-76
2022/03/25 01:37:37;;;;;;;55.35;19.40;;;;;;;;;;5034099;28;20029;-77
2022/03/25 01:40:05;;;;;;;66.25;20.20;;;;;;;;;;5034098;28;20026;-77
2022/03/25 01:42:37;;;;;;;54.17;19.48;;;;;;;;;;5033630;28;20066;-77
2022/03/25 01:45:03;;;;;;;45.97;18.85;;;;;;;;;;5016261;28;20036;-77
2022/03/25 01:47:30;;;;;;;58.90;20.88;;;;;;;;;;5016154;28;20033;-77
2022/03/25 01:49:59;;;;;;;55.33;20.10;;;;;;;;;;5016237;28;20044;-76
2022/03/25 01:52:24;;;;;;;48.25;18.92;;;;;;;;;;5004058;28;20017;-77
2022/03/25 01:54:50;;;;;;;49.67;18.70;;;;;;;;;;5038563;28;20033;-77
2022/03/25 01:57:15;;;;;;;52.75;20.35;;;;;;;;;;5016092;28;20478;-77
2022/03/25 01:59:41;;;;;;;50.20;19.73;;;;;;;;;;4999940;28;20026;-77
2022/03/25 02:02:07;;;;;;;47.15;19.15;;;;;;;;;;5016126;28;20029;-78
2022/03/25 02:04:33;;;;;;;46.25;18.52;;;;;;;;;;5000392;28;20029;-77
2022/03/25 02:06:58;;;;;;;45.92;17.63;;;;;;;;;;5016122;28;20183;-78
2022/03/25 02:09:27;;;;;;;53.88;18.25;;;;;;;;;;5015693;28;20037;-78
2022/03/25 02:11:52;;;;;;;48.85;18.20;;;;;;;;;;5016524;28;20029;-77
2022/03/25 02:14:18;;;;;;;47.70;18.58;;;;;;;;;;5040114;28;20026;-77
2022/03/25 02:16:45;;;;;;;49.95;18.65;;;;;;;;;;5033313;28;20433;-77
2022/03/25 02:19:11;;;;;;;44.95;18.65;;;;;;;;;;4983555;28;20121;-77
2022/03/25 02:21:38;;;;;;;47.70;17.85;;;;;;;;;;5033597;28;20033;-77
2022/03/25 02:24:05;;;;;;;52.30;18.95;;;;;;;;;;5034970;28;20052;-77
2022/03/25 02:26:30;;;;;;;53.63;17.98;;;;;;;;;;5030550;28;20045;-77
2022/03/25 02:28:56;;;;;;;54.63;18.25;;;;;;;;;;4983427;28;20038;-76
2022/03/25 02:31:22;;;;;;;50.25;17.88;;;;;;;;;;5017760;28;20038;-78
2022/03/25 02:33:47;;;;;;;49.80;18.20;;;;;;;;;;5001932;28;20045;-78
2022/03/25 02:36:13;;;;;;;45.53;17.05;;;;;;;;;;5022946;28;20037;-78
2022/03/25 02:38:38;;;;;;;60.13;20.83;;;;;;;;;;5016820;28;20375;-77
2022/03/25 02:41:04;;;;;;;48.42;19.48;;;;;;;;;;5017110;28;20128;-77
2022/03/25 02:43:30;;;;;;;57.08;21.10;;;;;;;;;;4999364;28;20030;-78
2022/03/25 02:45:55;;;;;;;59.72;21.95;;;;;;;;;;5016930;28;20034;-77
2022/03/25 02:48:21;;;;;;;48.33;18.88;;;;;;;;;;5017097;28;20490;-77
2022/03/25 02:50:47;;;;;;;50.72;18.55;;;;;;;;;;5016821;28;20045;-78
2022/03/25 02:53:15;;;;;;;58.75;19.83;;;;;;;;;;5017067;28;20383;-77
2022/03/25 02:55:42;;;;;;;70.13;22.90;;;;;;;;;;5021960;28;20022;-76
2022/03/25 02:58:08;;;;;;;60.63;22.30;;;;;;;;;;5015754;28;20030;-77
2022/03/25 03:00:34;;;;;;;68.70;25.70;;;;;;;;;;5016695;28;20084;-78
2022/03/25 03:03:00;;;;;;;59.97;24.42;;;;;;;;;;4999143;28;20032;-78
2022/03/25 03:05:29;;;;;;;64.82;24.92;;;;;;;;;;4999255;28;20025;-77
2022/03/25 03:07:55;;;;;;;79.07;27.30;;;;;;;;;;4998767;28;20044;-78
2022/03/25 03:10:20;;;;;;;73.47;28.50;;;;;;;;;;4999069;28;20396;-77
2022/03/25 03:12:46;;;;;;;74.80;28.15;;;;;;;;;;4982802;28;20079;-77
2022/03/25 03:15:12;;;;;;;76.90;27.45;;;;;;;;;;4999465;28;20133;-77
2022/03/25 03:17:38;;;;;;;69.85;28.15;;;;;;;;;;4999923;28;20033;-77
2022/03/25 03:20:04;;;;;;;88.32;30.58;;;;;;;;;;4998882;28;20030;-78
2022/03/25 03:22:30;;;;;;;77.00;29.00;;;;;;;;;;5016006;28;20030;-77
2022/03/25 03:24:55;;;;;;;69.35;27.52;;;;;;;;;;5016254;28;20025;-77
2022/03/25 03:27:21;;;;;;;76.93;28.73;;;;;;;;;;5008496;28;20136;-77
2022/03/25 03:29:46;;;;;;;80.97;29.20;;;;;;;;;;5014980;28;20152;-77
2022/03/25 03:32:12;;;;;;;81.90;31.02;;;;;;;;;;5015007;28;20363;-78
2022/03/25 03:34:37;;;;;;;85.95;31.90;;;;;;;;;;5014644;28;20476;-77
2022/03/25 03:37:03;;;;;;;93.93;32.13;;;;;;;;;;5017817;28;20041;-77
2022/03/25 03:39:29;;;;;;;80.63;31.20;;;;;;;;;;5017496;28;20033;-77
2022/03/25 03:41:54;;;;;;;74.50;29.85;;;;;;;;;;5015832;28;20460;-78
2022/03/25 03:44:20;;;;;;;92.10;31.58;;;;;;;;;;4998523;28;20068;-75
2022/03/25 03:46:45;;;;;;;84.95;32.35;;;;;;;;;;5014837;28;20030;-77
2022/03/25 03:49:11;;;;;;;85.13;32.55;;;;;;;;;;5014557;28;20037;-77
2022/03/25 03:51:36;;;;;;;96.38;32.83;;;;;;;;;;5015418;28;20069;-76
2022/03/25 03:54:03;;;;;;;89.63;34.80;;;;;;;;;;5014403;28;20029;-76
2022/03/25 03:56:28;;;;;;;100.93;35.95;;;;;;;;;;5020951;28;20353;-76
2022/03/25 03:58:54;;;;;;;91.28;34.90;;;;;;;;;;5016649;28;20053;-77
2022/03/25 04:01:19;;;;;;;93.72;36.00;;;;;;;;;;4998358;28;20033;-78
2022/03/25 04:03:45;;;;;;;103.45;36.03;;;;;;;;;;5015475;28;20053;-77
2022/03/25 04:06:11;;;;;;;95.35;35.78;;;;;;;;;;5014022;28;20049;-77
2022/03/25 04:08:36;;;;;;;100.15;37.28;;;;;;;;;;5014209;28;20029;-77
2022/03/25 04:11:02;;;;;;;104.70;38.38;;;;;;;;;;5015210;28;20029;-77
2022/03/25 04:13:28;;;;;;;115.95;40.00;;;;;;;;;;5014785;28;20029;-77
2022/03/25 04:15:54;;;;;;;109.28;39.03;;;;;;;;;;5015350;28;20048;-77
2022/03/25 04:18:19;;;;;;;130.90;40.85;;;;;;;;;;5020383;28;20022;-77
2022/03/25 04:20:45;;;;;;;105.53;40.00;;;;;;;;;;5014008;28;20057;-77
2022/03/25 04:23:11;;;;;;;102.40;37.58;;;;;;;;;;5014291;28;20120;-78
2022/03/25 04:25:36;;;;;;;107.65;40.08;;;;;;;;;;5015191;28;20021;-76
2022/03/25 04:28:02;;;;;;;107.55;39.53;;;;;;;;;;5015190;28;20394;-77
2022/03/25 04:30:29;;;;;;;112.50;37.53;;;;;;;;;;5013664;28;20117;-77
2022/03/25 04:32:55;;;;;;;140.82;42.45;;;;;;;;;;4997578;28;20026;-77
2022/03/25 04:35:21;;;;;;;122.05;40.42;;;;;;;;;;4997178;28;20017;-76
2022/03/25 04:37:46;;;;;;;108.95;37.45;;;;;;;;;;4998771;28;20034;-77
2022/03/25 04:40:13;;;;;;;109.60;38.88;;;;;;;;;;5018493;28;20040;-77
2022/03/25 04:42:39;;;;;;;111.43;39.45;;;;;;;;;;4981178;28;20337;-77
2022/03/25 04:45:05;;;;;;;110.60;38.47;;;;;;;;;;5014773;28;20181;-78
2022/03/25 04:47:30;;;;;;;112.97;39.67;;;;;;;;;;4996436;28;20022;-77
2022/03/25 04:49:56;;;;;;;115.07;38.83;;;;;;;;;;4980610;28;20040;-77
2022/03/25 04:52:21;;;;;;;115.72;39.90;;;;;;;;;;5014709;28;20021;-77
2022/03/25 04:54:47;;;;;;;106.80;39.33;;;;;;;;;;4996456;28;20045;-77
2022/03/25 04:57:12;;;;;;;108.28;38.75;;;;;;;;;;5014557;28;20049;-77
2022/03/25 04:59:38;;;;;;;124.30;40.17;;;;;;;;;;5019654;28;20109;-77
2022/03/25 05:02:03;;;;;;;130.52;42.55;;;;;;;;;;4997166;28;20472;-77
2022/03/25 05:04:29;;;;;;;119.05;43.50;;;;;;;;;;5014371;28;20029;-78
2022/03/25 05:06:54;;;;;;;134.35;50.60;;;;;;;;;;5014513;28;20026;-78
2022/03/25 05:09:20;;;;;;;145.20;50.35;;;;;;;;;;5014239;28;20040;-76
2022/03/25 05:11:45;;;;;;;159.35;52.65;;;;;;;;;;5014396;28;20030;-77
2022/03/25 05:14:11;;;;;;;151.50;52.63;;;;;;;;;;5014427;28;20030;-77
2022/03/25 05:16:36;;;;;;;143.18;52.42;;;;;;;;;;5014920;28;20033;-78
2022/03/25 05:19:02;;;;;;;145.18;50.80;;;;;;;;;;4996677;28;20041;-77
2022/03/25 05:21:28;;;;;;;131.63;48.38;;;;;;;;;;5017379;28;20307;-81
2022/03/25 05:23:53;;;;;;;124.57;44.88;;;;;;;;;;4997014;28;20030;-80
2022/03/25 05:26:20;;;;;;;125.13;42.72;;;;;;;;;;5014269;28;20463;-78
2022/03/25 05:28:45;;;;;;;124.43;43.72;;;;;;;;;;5014632;28;20029;-78
2022/03/25 05:31:11;;;;;;;115.18;40.45;;;;;;;;;;5014116;28;20026;-78
2022/03/25 05:33:37;;;;;;;120.13;40.35;;;;;;;;;;5014168;28;20037;-78
2022/03/25 05:36:03;;;;;;;126.43;41.50;;;;;;;;;;4982347;28;20037;-77
2022/03/25 05:38:30;;;;;;;121.82;42.47;;;;;;;;;;5031470;28;20037;-78
2022/03/25 05:40:55;;;;;;;116.53;38.63;;;;;;;;;;5018830;28;20092;-79
2022/03/25 05:43:21;;;;;;;109.20;39.55;;;;;;;;;;4994120;28;20026;-78
2022/03/25 05:45:46;;;;;;;113.72;37.63;;;;;;;;;;5016475;28;20037;-78
2022/03/25 05:48:12;;;;;;;112.00;37.05;;;;;;;;;;5011438;28;20037;-78
2022/03/25 05:50:39;;;;;;;104.63;37.20;;;;;;;;;;4988117;28;20037;-78
2022/03/25 05:53:05;;;;;;;117.53;36.55;;;;;;;;;;5000655;28;20042;-80
2022/03/25 05:55:32;;;;;;;110.13;37.35;;;;;;;;;;5003348;28;20522;-80
2022/03/25 05:57:57;;;;;;;121.30;37.30;;;;;;;;;;5005675;28;20033;-80
2022/03/25 06:00:23;;;;;;;133.20;37.33;;;;;;;;;;5023783;28;20338;-79
2022/03/25 06:02:50;;;;;;;107.90;37.50;;;;;;;;;;5028388;28;20091;-78
2022/03/25 06:05:15;;;;;;;115.65;40.05;;;;;;;;;;5030958;28;20725;-78
2022/03/25 06:07:42;;;;;;;132.90;39.45;;;;;;;;;;5032031;28;20634;-80
2022/03/25 06:10:14;;;;;;;134.02;38.30;;;;;;;;;;4996159;28;20082;-78
2022/03/25 06:12:39;;;;;;;102.38;38.55;;;;;;;;;;5017536;28;20605;-77
2022/03/25 06:15:05;;;;;;;113.63;39.05;;;;;;;;;;5005815;28;20199;-77
2022/03/25 06:17:31;;;;;;;107.95;37.60;;;;;;;;;;5015553;28;20182;-77
2022/03/25 06:19:57;;;;;;;99.57;36.95;;;;;;;;;;5016041;28;20123;-78
2022/03/25 06:22:24;;;;;;;96.65;38.95;;;;;;;;;;5026343;28;20018;-75
2022/03/25 06:24:52;;;;;;;103.53;40.72;;;;;;;;;;5036690;28;20025;-78
2022/03/25 06:27:17;;;;;;;111.95;42.92;;;;;;;;;;5030669;28;20053;-78
2022/03/25 06:29:43;;;;;;;112.55;43.78;;;;;;;;;;5012394;28;20045;-77
2022/03/25 06:32:08;;;;;;;119.68;41.28;;;;;;;;;;5035216;28;20124;-76
2022/03/25 06:34:34;;;;;;;85.43;34.83;;;;;;;;;;5012327;28;20443;-78
2022/03/25 06:37:01;;;;;;;83.22;32.33;;;;;;;;;;4998568;28;20026;-79
2022/03/25 06:39:26;;;;;;;76.10;31.35;;;;;;;;;;5024481;28;20034;-78
2022/03/25 06:41:52;;;;;;;97.35;32.67;;;;;;;;;;5032933;28;20036;-77
2022/03/25 06:44:17;;;;;;;130.27;33.80;;;;;;;;;;5026858;28;20058;-77
2022/03/25 06:46:43;;;;;;;105.05;31.85;;;;;;;;;;5033689;28;20118;-79
2022/03/25 06:49:10;;;;;;;107.60;31.48;;;;;;;;;;5024565;28;20034;-85
2022/03/25 06:51:47;;;;;;;73.63;31.58;;;;;;;;;;4992607;28;20474;-84
2022/03/25 06:54:19;;;;;;;60.45;29.90;;;;;;;;;;5016038;28;20026;-84
2022/03/25 06:56:45;;;;;;;67.10;29.92;;;;;;;;;;4999632;28;20040;-86
2022/03/25 06:59:11;;;;;;;65.00;30.83;;;;;;;;;;5017537;28;20028;-83
2022/03/25 07:01:40;;;;;;;62.05;31.40;;;;;;;;;;5010360;28;20129;-83
2022/03/25 07:04:09;;;;;;;70.10;30.93;;;;;;;;;;5045709;28;20031;-85
2022/03/25 07:06:36;;;;;;;75.32;39.65;;;;;;;;;;5044739;28;20383;-81
2022/03/25 07:09:06;;;;;;;64.70;33.40;;;;;;;;;;5035339;28;20041;-82
2022/03/25 07:11:42;;;;;;;61.85;29.45;;;;;;;;;;5013419;28;20080;-82
2022/03/25 07:14:13;;;;;;;77.03;38.33;;;;;;;;;;5015314;28;20379;-83
2022/03/25 07:16:45;;;;;;;60.83;29.25;;;;;;;;;;5016632;28;20348;-83
2022/03/25 07:19:27;;;;;;;62.50;30.63;;;;;;;;;;4973964;28;20442;-83
2022/03/25 07:22:34;;;;;;;72.28;31.63;;;;;;;;;;5034924;28;20056;-85
2022/03/25 07:24:59;;;;;;;78.93;39.75;;;;;;;;;;5034926;28;20087;-81
2022/03/25 07:27:26;;;;;;;63.55;31.92;;;;;;;;;;5038474;28;20030;-79
2022/03/25 07:29:55;;;;;;;68.63;32.38;;;;;;;;;;5013587;28;20080;-78
2022/03/25 07:32:20;;;;;;;78.13;34.92;;;;;;;;;;5048770;22;20036;-83
2022/03/25 07:34:49;;;;;;;82.63;35.45;;;;;;;;;;5016321;28;20037;-85
2022/03/25 07:37:17;;;;;;;84.90;38.80;;;;;;;;;;5035254;28;20485;-84
2022/03/25 07:39:44;;;;;;;80.72;36.80;;;;;;;;;;4997558;28;20029;-83
2022/03/25 07:42:12;;;;;;;66.55;32.85;;;;;;;;;;5004169;28;20101;-85
2022/03/25 07:50:42;;;;;;;62.65;30.35;;;;;;;;;;5056987;28;20051;-86
2022/03/25 07:53:09;;;;;;;71.28;31.23;;;;;;;;;;5072439;28;20036;-89
2022/03/25 07:55:35;;;;;;;90.93;39.63;;;;;;;;;;5057965;28;20472;-86
2022/03/25 07:58:00;;;;;;;62.67;28.58;;;;;;;;;;5075898;28;20025;-86
2022/03/25 08:00:26;;;;;;;56.85;27.08;;;;;;;;;;5075866;28;20039;-85
2022/03/25 08:02:52;;;;;;;64.47;30.40;;;;;;;;;;5044123;28;20032;-85
2022/03/25 08:05:18;;;;;;;63.08;28.95;;;;;;;;;;5083168;28;20029;-87
2022/03/25 08:07:47;;;;;;;65.18;29.33;;;;;;;;;;5082904;28;20029;-86
2022/03/25 08:10:12;;;;;;;63.17;30.00;;;;;;;;;;5080706;28;20080;-85
2022/03/25 08:12:39;;;;;;;62.90;31.35;;;;;;;;;;5076107;28;20071;-87
2022/03/25 08:15:06;;;;;;;82.97;39.67;;;;;;;;;;5095460;22;20378;-85
2022/03/25 08:17:31;;;;;;;60.22;27.13;;;;;;;;;;5030230;28;20029;-89
2022/03/25 08:20:00;;;;;;;60.38;28.70;;;;;;;;;;5045805;28;20058;-88
2022/03/25 08:22:25;;;;;;;61.85;28.80;;;;;;;;;;5048481;28;20037;-84
2022/03/25 08:27:50;;;;;;;67.45;31.90;;;;;;;;;;5044751;28;20076;-86
2022/03/25 08:30:16;;;;;;;95.40;37.80;;;;;;;;;;5015277;28;20378;-87
2022/03/25 08:32:48;;;;;;;81.90;39.70;;;;;;;;;;5048204;28;20044;-88
2022/03/25 08:35:34;;;;;;;65.57;33.92;;;;;;;;;;5031217;28;20052;-86
2022/03/25 08:37:59;;;;;;;71.90;29.10;;;;;;;;;;5023205;28;20123;-80
2022/03/25 08:40:26;;;;;;;54.20;25.75;;;;;;;;;;5034400;28;20101;-80
2022/03/25 08:42:52;;;;;;;54.05;26.10;;;;;;;;;;5050929;28;20030;-81
2022/03/25 08:45:17;;;;;;;59.10;26.08;;;;;;;;;;5037117;28;20116;-78
2022/03/25 08:47:44;;;;;;;67.53;28.58;;;;;;;;;;5028358;28;20029;-78
2022/03/25 08:50:12;;;;;;;64.35;26.48;;;;;;;;;;5011376;28;20607;-81
2022/03/25 08:52:41;;;;;;;58.67;28.40;;;;;;;;;;5031944;28;20418;-84
2022/03/25 08:55:12;;;;;;;85.50;43.25;;;;;;;;;;4998474;28;20030;-84
2022/03/25 08:57:38;;;;;;;76.97;28.25;;;;;;;;;;5018024;28;20037;-86
2022/03/25 09:00:12;;;;;;;92.85;44.75;;;;;;;;;;5015678;28;20098;-84
2022/03/25 09:02:39;;;;;;;61.05;28.27;;;;;;;;;;5023437;28;20079;-89
2022/03/25 09:05:05;;;;;;;66.32;31.80;;;;;;;;;;5020604;28;20116;-84
2022/03/25 09:07:31;;;;;;;56.78;26.50;;;;;;;;;;5043986;28;20471;-84
2022/03/25 09:09:56;;;;;;;57.03;25.00;;;;;;;;;;5011976;28;20036;-83
2022/03/25 09:12:23;;;;;;;59.42;28.30;;;;;;;;;;5031422;28;20029;-82
2022/03/25 09:14:48;;;;;;;60.38;26.63;;;;;;;;;;5047206;28;20508;-83
2022/03/25 09:17:14;;;;;;;61.67;25.15;;;;;;;;;;5012460;28;20147;-82
2022/03/25 09:19:40;;;;;;;58.47;25.00;;;;;;;;;;5035148;28;20163;-82
2022/03/25 09:22:05;;;;;;;59.72;23.02;;;;;;;;;;5020576;28;20029;-84
2022/03/25 09:24:31;;;;;;;78.00;35.50;;;;;;;;;;5024362;28;20025;-82
2022/03/25 09:26:57;;;;;;;58.05;24.80;;;;;;;;;;5018369;28;20029;-83
2022/03/25 09:29:23;;;;;;;70.07;28.65;;;;;;;;;;5039179;28;20041;-83
2022/03/25 09:31:56;;;;;;;52.38;23.25;;;;;;;;;;5000863;28;20064;-82
2022/03/25 09:37:05;;;;;;;67.43;30.50;;;;;;;;;;5041207;28;20036;-85
2022/03/25 09:39:31;;;;;;;77.85;35.35;;;;;;;;;;5043808;28;20026;-86
2022/03/25 09:42:00;;;;;;;72.72;31.83;;;;;;;;;;5021565;28;20040;-81
2022/03/25 09:44:25;;;;;;;64.10;26.00;;;;;;;;;;5047436;28;20021;-83
2022/03/25 09:47:01;;;;;;;63.35;27.95;;;;;;;;;;5022406;28;20108;-84
2022/03/25 09:49:26;;;;;;;71.80;23.33;;;;;;;;;;5036281;28;20399;-80
2022/03/25 09:51:52;;;;;;;50.90;23.48;;;;;;;;;;5012366;28;20129;-81
2022/03/25 09:54:18;;;;;;;55.42;22.50;;;;;;;;;;5052110;28;20061;-78
2022/03/25 09:56:44;;;;;;;51.05;23.30;;;;;;;;;;5029941;28;20129;-81
2022/03/25 09:59:09;;;;;;;52.67;22.55;;;;;;;;;;5053039;28;20127;-78
2022/03/25 10:01:35;;;;;;;63.15;24.23;;;;;;;;;;5048468;28;20511;-79
2022/03/25 10:04:01;;;;;;;48.03;21.08;;;;;;;;;;5035935;28;20136;-78
2022/03/25 10:06:26;;;;;;;44.28;20.88;;;;;;;;;;5053751;28;20031;-77
2022/03/25 10:08:59;;;;;;;57.53;25.33;;;;;;;;;;5042595;28;20032;-77
2022/03/25 10:11:30;;;;;;;54.88;22.75;;;;;;;;;;5035709;28;20030;-77
2022/03/25 10:14:28;;;;;;;56.97;22.38;;;;;;;;;;5029688;28;20028;-77
2022/03/25 10:16:55;;;;;;;57.33;22.70;;;;;;;;;;5045308;28;20025;-78
2022/03/25 10:19:22;;;;;;;53.30;23.45;;;;;;;;;;5048505;28;20120;-76
2022/03/25 10:22:00;;;;;;;53.53;24.08;;;;;;;;;;5042679;28;20080;-76
2022/03/25 10:24:43;;;;;;;45.47;22.55;;;;;;;;;;5021316;28;20031;-78
2022/03/25 10:27:08;;;;;;;49.80;22.70;;;;;;;;;;5061370;28;20029;-79
2022/03/25 10:29:37;;;;;;;47.90;20.63;;;;;;;;;;5042675;28;20033;-77
2022/03/25 10:32:04;;;;;;;48.95;22.85;;;;;;;;;;5032225;28;20040;-79
2022/03/25 10:34:30;;;;;;;52.67;21.52;;;;;;;;;;5074835;28;20075;-81
2022/03/25 10:37:03;;;;;;;45.47;22.35;;;;;;;;;;5043673;28;20020;-79
2022/03/25 10:39:31;;;;;;;53.55;22.45;;;;;;;;;;5035646;28;20033;-80
2022/03/25 10:42:01;;;;;;;55.13;22.20;;;;;;;;;;5025152;28;20073;-81
2022/03/25 10:44:38;;;;;;;51.58;23.02;;;;;;;;;;5034183;28;20060;-78
2022/03/25 10:47:15;;;;;;;49.50;21.85;;;;;;;;;;5033357;28;20030;-79
2022/03/25 10:49:48;;;;;;;47.75;21.48;;;;;;;;;;5031216;28;20029;-80
2022/03/25 10:52:34;;;;;;;49.97;21.75;;;;;;;;;;5033090;28;20029;-79
2022/03/25 10:55:17;;;;;;;44.67;21.30;;;;;;;;;;5037253;28;20044;-77
2022/03/25 10:58:01;;;;;;;55.22;22.90;;;;;;;;;;5055796;28;20056;-80
2022/03/25 11:00:26;;;;;;;49.60;22.15;;;;;;;;;;5034367;28;20115;-79
2022/03/25 11:02:52;;;;;;;42.92;21.25;;;;;;;;;;5055641;28;20089;-78
2022/03/25 11:05:18;;;;;;;65.07;20.02;;;;;;;;;;5037787;28;20021;-77
2022/03/25 11:10:53;;;;;;;37.60;18.00;;;;;;;;;;5035154;28;20081;-77
2022/03/25 11:13:19;;;;;;;65.40;32.72;;;;;;;;;;5016993;28;20095;-82
2022/03/25 11:15:44;;;;;;;79.22;38.45;;;;;;;;;;5003816;28;20049;-81
2022/03/25 11:18:10;;;;;;;45.95;21.63;;;;;;;;;;5038182;28;20032;-85
2022/03/25 11:20:36;;;;;;;70.63;38.25;;;;;;;;;;5037051;28;20267;-85
2022/03/25 11:23:19;;;;;;;48.08;23.08;;;;;;;;;;5040691;28;20078;-84
2022/03/25 11:25:53;;;;;;;52.85;25.35;;;;;;;;;;5005159;28;20446;-83
2022/03/25 11:28:29;;;;;;;52.70;22.95;;;;;;;;;;5021507;28;20044;-84
2022/03/25 11:31:02;;;;;;;50.38;16.90;;;;;;;;;;5023517;28;20191;-84
2022/03/25 11:33:28;;;;;;;43.38;16.20;;;;;;;;;;5007041;28;20033;-83
2022/03/25 11:36:14;;;;;;;41.20;16.85;;;;;;;;;;5017060;28;20028;-81
2022/03/25 11:38:39;;;;;;;32.58;15.90;;;;;;;;;;5050492;28;20029;-82
2022/03/25 11:41:27;;;;;;;33.90;14.90;;;;;;;;;;5035405;28;20099;-82
2022/03/25 11:44:26;;;;;;;39.33;14.68;;;;;;;;;;5041679;28;20025;-80
2022/03/25 11:47:03;;;;;;;34.70;13.23;;;;;;;;;;5054390;28;20029;-81
2022/03/25 11:49:30;;;;;;;38.90;13.50;;;;;;;;;;5051304;28;20404;-81
2022/03/25 11:51:56;;;;;;;30.70;13.63;;;;;;;;;;5020357;28;20028;-80
2022/03/25 11:54:37;;;;;;;27.38;13.63;;;;;;;;;;5037542;28;20450;-80
2022/03/25 11:57:04;;;;;;;39.85;13.57;;;;;;;;;;5053640;28;20402;-78
2022/03/25 11:59:49;;;;;;;40.38;14.73;;;;;;;;;;5023187;28;20082;-82
2022/03/25 12:02:31;;;;;;;39.45;14.13;;;;;;;;;;5024956;28;20032;-80
2022/03/25 12:05:00;;;;;;;41.03;12.90;;;;;;;;;;5026857;28;20040;-79
2022/03/25 12:07:26;;;;;;;32.57;11.80;;;;;;;;;;5021509;28;20370;-81
2022/03/25 12:09:52;;;;;;;49.25;12.93;;;;;;;;;;5021350;28;20044;-77
2022/03/25 12:12:17;;;;;;;46.67;12.55;;;;;;;;;;5037447;28;20029;-80
2022/03/25 12:15:06;;;;;;;29.30;12.27;;;;;;;;;;5020294;28;20031;-81
2022/03/25 12:17:31;;;;;;;108.65;16.20;;;;;;;;;;5037420;28;20040;-82
2022/03/25 12:19:57;;;;;;;34.95;14.48;;;;;;;;;;5038332;28;20370;-83
2022/03/25 12:22:23;;;;;;;49.13;14.95;;;;;;;;;;5039355;28;20052;-85
2022/03/25 12:24:52;;;;;;;38.08;14.65;;;;;;;;;;5065795;28;20032;-82
2022/03/25 12:27:18;;;;;;;39.20;14.43;;;;;;;;;;5026218;28;20028;-81
2022/03/25 12:29:48;;;;;;;30.25;14.68;;;;;;;;;;5036675;28;20217;-83
2022/03/25 12:32:15;;;;;;;35.53;15.32;;;;;;;;;;5036167;28;20033;-81
2022/03/25 12:34:41;;;;;;;38.08;15.40;;;;;;;;;;5019222;28;20039;-82
2022/03/25 12:37:10;;;;;;;52.13;15.15;;;;;;;;;;5035578;28;20027;-81
2022/03/25 12:39:35;;;;;;;44.42;15.30;;;;;;;;;;5019682;28;20346;-80
2022/03/25 12:42:12;;;;;;;50.22;16.00;;;;;;;;;;5035564;28;20079;-82
2022/03/25 12:44:37;;;;;;;63.30;16.92;;;;;;;;;;5037615;28;20124;-82
2022/03/25 12:47:03;;;;;;;41.33;17.73;;;;;;;;;;5052224;28;20119;-81
2022/03/25 12:49:29;;;;;;;39.35;18.02;;;;;;;;;;5035904;28;20129;-81
2022/03/25 12:51:59;;;;;;;57.83;20.15;;;;;;;;;;5036128;28;20033;-80
2022/03/25 12:54:30;;;;;;;72.97;19.65;;;;;;;;;;5036684;28;20052;-81
2022/03/25 12:57:00;;;;;;;50.72;22.23;;;;;;;;;;5036467;28;20033;-81
2022/03/25 12:59:27;;;;;;;48.72;18.85;;;;;;;;;;5035558;28;20437;-81
2022/03/25 13:01:53;;;;;;;48.42;18.35;;;;;;;;;;5034695;28;20029;-79
2022/03/25 13:04:28;;;;;;;52.38;19.50;;;;;;;;;;5052454;28;20406;-83
2022/03/25 13:07:08;;;;;;;48.97;18.90;;;;;;;;;;5034564;28;20032;-82
2022/03/25 13:09:33;;;;;;;;;;;;;;;;;;5018843;28;20036;-83
2022/03/25 13:12:02;;;;;;;40.05;18.40;;;;;;;;;;5035483;28;19917;-80
2022/03/25 13:14:28;;;;;;;53.45;18.15;;;;;;;;;;5019084;28;20040;-83
2022/03/25 13:16:55;;;;;;;45.95;18.85;;;;;;;;;;5018206;28;20033;-82
2022/03/25 13:19:33;;;;;;;48.22;18.50;;;;;;;;;;5035014;28;20343;-82
2022/03/25 13:22:17;;;;;;;44.10;19.10;;;;;;;;;;5053407;28;20037;-82
2022/03/25 13:24:55;;;;;;;50.63;19.30;;;;;;;;;;5056173;28;20035;-84
2022/03/25 13:27:21;;;;;;;57.25;20.70;;;;;;;;;;5053127;28;20096;-83
2022/03/25 13:29:47;;;;;;;51.63;20.08;;;;;;;;;;5019373;28;20029;-82
2022/03/25 13:32:30;;;;;;;85.32;21.35;;;;;;;;;;5035934;28;20066;-81
2022/03/25 13:35:05;;;;;;;57.97;20.80;;;;;;;;;;5053832;28;20025;-81
2022/03/25 13:37:32;;;;;;;51.55;19.88;;;;;;;;;;5053866;28;20025;-82
2022/03/25 13:39:58;;;;;;;45.28;18.70;;;;;;;;;;5036057;28;20032;-81
2022/03/25 13:42:34;;;;;;;50.40;19.45;;;;;;;;;;5035994;28;20358;-82
2022/03/25 13:45:07;;;;;;;58.47;19.40;;;;;;;;;;5021206;28;20021;-83
2022/03/25 13:47:33;;;;;;;50.38;17.90;;;;;;;;;;5035490;28;20046;-84
2022/03/25 13:50:31;;;;;;;49.67;18.05;;;;;;;;;;5035926;28;20425;-82
2022/03/25 13:53:09;;;;;;;43.08;18.08;;;;;;;;;;5020006;28;20037;-82
2022/03/25 13:55:37;;;;;;;48.53;18.13;;;;;;;;;;5020585;28;20082;-79
2022/03/25 13:58:02;;;;;;;105.95;19.58;;;;;;;;;;5036265;28;20354;-82
2022/03/25 14:00:33;;;;;;;60.30;17.95;;;;;;;;;;5019509;28;20029;-82
2022/03/25 14:02:59;;;;;;;78.30;17.52;;;;;;;;;;5020481;28;20029;-82
2022/03/25 14:05:25;;;;;;;57.53;16.85;;;;;;;;;;5036707;28;20363;-83
2022/03/25 14:07:58;;;;;;;66.70;15.70;;;;;;;;;;5035975;28;20029;-78
2022/03/25 14:10:24;;;;;;;40.35;14.40;;;;;;;;;;5053282;28;20355;-78
2022/03/25 14:13:01;;;;;;;37.58;14.55;;;;;;;;;;5036543;28;20029;-78
2022/03/25 14:15:27;;;;;;;57.05;16.17;;;;;;;;;;5053629;28;20094;-78
2022/03/25 14:17:53;;;;;;;59.05;16.75;;;;;;;;;;5052585;28;20029;-78
2022/03/25 14:20:19;;;;;;;38.08;14.00;;;;;;;;;;5038788;28;20083;-78
2022/03/25 14:22:49;;;;;;;33.47;12.43;;;;;;;;;;5057168;28;20029;-78
2022/03/25 14:25:15;;;;;;;41.05;14.82;;;;;;;;;;5065942;28;20349;-78
2022/03/25 14:28:05;;;;;;;30.38;14.55;;;;;;;;;;5039798;28;20028;-77
2022/03/25 14:30:30;;;;;;;50.13;14.43;;;;;;;;;;5057157;28;20045;-79
2022/03/25 14:32:56;;;;;;;59.95;17.10;;;;;;;;;;5056600;28;20368;-79
2022/03/25 14:35:22;;;;;;;40.97;15.65;;;;;;;;;;5056776;28;20025;-78